createdAt,value
2023-03-26T05:04:16.290Z,10.40
2023-03-26T05:09:21.226Z,10.40
2023-03-26T05:14:26.791Z,10.40
2023-03-26T05:19:32.044Z,10.40
2023-03-26T05:34:47.382Z,10.10
2023-03-26T05:39:54.519Z,10.10
2023-03-26T05:45:01.946Z,10.00
2023-03-26T05:50:09.651Z,10.10
2023-03-26T05:55:14.204Z,9.90
2023-03-26T06:00:24.249Z,10.00
2023-03-26T06:05:32.694Z,9.70
2023-03-26T06:10:39.160Z,9.70
2023-03-26T06:15:43.172Z,9.60
2023-03-26T06:20:49.052Z,9.60
2023-03-26T06:25:53.598Z,9.60
2023-03-26T06:31:01.144Z,9.60
2023-03-26T06:36:07.606Z,9.50
2023-03-26T06:41:11.654Z,9.60
2023-03-26T06:46:16.435Z,9.60
2023-03-26T06:51:23.621Z,9.80
2023-03-26T06:56:29.234Z,9.80
2023-03-26T07:01:33.481Z,10.00
2023-03-26T07:06:53.046Z,10.10
2023-03-26T07:12:05.930Z,10.20
2023-03-26T07:17:10.932Z,10.40
2023-03-26T07:22:21.425Z,10.60
2023-03-26T07:27:37.826Z,10.80
2023-03-26T07:32:50.518Z,11.00
2023-03-26T07:38:12.299Z,11.20
2023-03-26T07:43:30.690Z,11.30
2023-03-26T07:48:41.883Z,11.30
2023-03-26T07:53:47.813Z,11.30
2023-03-26T07:59:03.683Z,11.40
2023-03-26T08:04:24.556Z,11.70
2023-03-26T08:09:36.641Z,11.90
2023-03-26T08:14:59.439Z,12.00
2023-03-26T08:20:16.911Z,11.90
2023-03-26T08:25:29.766Z,11.80
2023-03-26T08:30:33.401Z,11.50
2023-03-26T08:35:42.301Z,11.20
2023-03-26T08:41:24.936Z,10.90
2023-03-26T08:47:00.671Z,10.70
2023-03-26T08:52:37.303Z,10.60
2023-03-26T08:58:24.289Z,10.60
2023-03-26T09:03:56.216Z,10.40
2023-03-26T09:09:33.887Z,10.30
2023-03-26T09:15:17.213Z,10.20
2023-03-26T09:21:14.950Z,10.20
2023-03-26T09:26:33.249Z,10.00
2023-03-26T09:32:09.562Z,9.90
2023-03-26T09:37:19.080Z,9.70
2023-03-26T09:42:34.185Z,9.70
2023-03-26T09:48:05.492Z,9.70
2023-03-26T09:53:29.374Z,9.70
2023-03-26T09:58:57.316Z,9.80
2023-03-26T10:04:33.478Z,10.10
2023-03-26T10:09:51.539Z,10.20
2023-03-26T10:15:06.881Z,10.50
2023-03-26T10:20:38.758Z,10.80
2023-03-26T10:25:56.356Z,11.60
2023-03-26T10:31:31.783Z,12.50
2023-03-26T10:36:43.217Z,13.30
2023-03-26T10:41:55.768Z,14.10
2023-03-26T10:47:12.787Z,14.60
2023-03-26T10:52:21.208Z,14.60
2023-03-26T10:57:35.231Z,14.70
2023-03-26T11:02:44.622Z,14.70
2023-03-26T11:07:54.010Z,14.30
2023-03-26T11:13:05.414Z,13.60
2023-03-26T11:18:16.849Z,13.20
2023-03-26T11:23:35.015Z,13.00
2023-03-26T11:29:06.267Z,13.10
2023-03-26T11:34:27.041Z,13.10
2023-03-26T11:39:44.164Z,13.10
2023-03-26T11:44:52.390Z,13.10
2023-03-26T11:49:58.743Z,13.30
2023-03-26T11:55:03.642Z,13.30
2023-03-26T12:00:16.816Z,13.20
2023-03-26T12:05:22.658Z,13.60
2023-03-26T12:10:31.463Z,14.50
2023-03-26T12:15:44.774Z,15.20
2023-03-26T12:20:49.386Z,16.00
2023-03-26T12:26:13.075Z,16.70
2023-03-26T12:31:19.507Z,17.50
2023-03-26T12:36:29.219Z,17.80
2023-03-26T12:44:42.665Z,17.90
2023-03-26T12:47:57.210Z,18.50
2023-03-26T12:53:03.500Z,19.10
2023-03-26T12:58:22.674Z,19.50
2023-03-26T13:03:44.327Z,19.60
2023-03-26T13:09:06.618Z,19.60
2023-03-26T13:14:34.206Z,20.10
2023-03-26T13:19:44.023Z,20.70
2023-03-26T13:24:54.949Z,20.50
2023-03-26T13:30:04.379Z,20.20
2023-03-26T13:35:20.982Z,19.90
2023-03-26T13:40:30.150Z,19.80
2023-03-26T13:45:47.839Z,19.30
2023-03-26T13:51:00.104Z,18.30
2023-03-26T13:56:03.687Z,17.40
2023-03-26T14:01:16.800Z,17.40
2023-03-26T14:06:33.995Z,18.00
2023-03-26T14:11:55.317Z,18.50
2023-03-26T14:17:05.881Z,19.00
2023-03-26T14:22:19.000Z,19.40
2023-03-26T14:27:49.645Z,19.70
2023-03-26T14:33:04.319Z,19.40
2023-03-26T14:38:41.762Z,18.70
2023-03-26T14:44:21.067Z,18.20
2023-03-26T14:50:04.769Z,17.40
2023-03-26T14:55:17.260Z,16.70
2023-03-26T15:01:04.366Z,16.50
2023-03-26T15:06:57.543Z,16.70
2023-03-26T15:12:12.222Z,17.20
2023-03-26T15:17:52.221Z,17.60
2023-03-26T15:23:22.171Z,17.90
2023-03-26T15:29:11.951Z,18.00
2023-03-26T15:34:58.270Z,17.50
2023-03-26T15:40:24.197Z,16.80
2023-03-26T15:45:34.537Z,16.30
2023-03-26T15:50:55.780Z,16.30
2023-03-26T15:56:18.116Z,16.30
2023-03-26T16:01:36.640Z,16.20
2023-03-26T16:06:50.082Z,15.90
2023-03-26T16:11:57.834Z,15.80
2023-03-26T16:17:05.425Z,15.70
2023-03-26T16:22:14.141Z,15.50
2023-03-26T16:27:35.292Z,15.30
2023-03-26T16:32:42.560Z,15.20
2023-03-26T16:37:50.371Z,15.10
2023-03-26T16:43:02.905Z,14.90
2023-03-26T16:48:16.474Z,14.70
2023-03-26T16:53:30.305Z,14.70
2023-03-26T16:58:44.864Z,14.60
2023-03-26T17:03:55.592Z,14.60
2023-03-26T17:09:06.544Z,14.40
2023-03-26T17:14:36.219Z,14.30
2023-03-26T17:19:48.108Z,14.10
2023-03-26T17:24:57.618Z,14.00
2023-03-26T17:30:25.956Z,13.80
2023-03-26T17:35:42.862Z,13.70
2023-03-26T17:40:54.432Z,13.50
2023-03-26T17:46:03.438Z,13.40
2023-03-26T17:51:28.122Z,13.20
2023-03-26T17:56:33.194Z,13.10
2023-03-26T18:01:41.365Z,13.00
2023-03-26T18:07:04.388Z,13.00
2023-03-26T18:12:38.614Z,12.90
2023-03-26T18:17:47.531Z,12.80
2023-03-26T18:22:51.827Z,12.80
2023-03-26T18:27:56.773Z,12.70
2023-03-26T18:33:05.663Z,12.60
2023-03-26T18:38:16.958Z,12.50
2023-03-26T18:43:34.335Z,12.50
2023-03-26T18:48:39.585Z,12.40
2023-03-26T18:53:50.357Z,12.30
2023-03-26T18:58:57.604Z,12.20
2023-03-26T19:04:05.351Z,12.20
2023-03-26T19:09:28.067Z,12.10
2023-03-26T19:14:36.800Z,12.10
2023-03-26T19:19:42.595Z,12.00
2023-03-26T19:24:46.304Z,11.90
2023-03-26T19:29:49.894Z,11.80
2023-03-26T19:34:54.821Z,11.80
2023-03-26T19:40:07.059Z,11.70
2023-03-26T19:45:17.780Z,11.60
2023-03-26T19:50:27.924Z,11.60
2023-03-26T19:55:31.722Z,11.50
2023-03-26T20:00:35.278Z,11.40
2023-03-26T20:05:40.471Z,11.40
2023-03-26T20:10:44.272Z,11.40
2023-03-26T20:16:05.674Z,11.40
2023-03-26T20:21:13.426Z,11.40
2023-03-26T20:26:18.599Z,11.40
2023-03-26T20:31:25.122Z,11.40
2023-03-26T20:36:33.419Z,11.40
2023-03-26T20:41:44.975Z,11.50
2023-03-26T20:46:50.070Z,11.60
2023-03-26T20:51:55.595Z,11.60
2023-03-26T20:56:59.217Z,11.70
2023-03-26T21:02:03.286Z,11.70
2023-03-26T21:07:17.795Z,11.70
2023-03-26T21:12:29.666Z,11.80
2023-03-26T21:17:33.709Z,11.80
2023-03-26T21:22:46.187Z,11.80
2023-03-26T21:28:01.215Z,11.80
2023-03-26T21:33:05.506Z,11.80
2023-03-26T21:38:12.171Z,11.80
2023-03-26T21:43:16.760Z,11.80
2023-03-26T21:48:20.886Z,11.90
2023-03-26T21:53:27.160Z,11.90
2023-03-26T21:58:42.782Z,11.90
2023-03-26T22:03:56.732Z,11.90
2023-03-26T22:09:02.041Z,11.80
2023-03-26T22:14:06.159Z,11.80
2023-03-26T22:19:09.982Z,11.80
2023-03-26T22:24:14.957Z,11.80
2023-03-26T22:29:18.453Z,11.80
